createdAt,value
2024-03-05T08:05:05.968Z,32.38
2024-03-05T08:15:40.955Z,31.83
2024-03-05T08:26:15.891Z,29.48
2024-03-05T08:36:51.463Z,31.45
2024-03-05T08:47:26.564Z,34.35
2024-03-05T08:58:02.048Z,34.38
2024-03-05T09:08:38.684Z,32.47
2024-03-05T09:19:15.643Z,30.60
2024-03-05T09:29:50.523Z,29.75
2024-03-05T09:40:25.748Z,28.88
2024-03-05T09:51:01.205Z,26.35
2024-03-05T10:01:38.541Z,25.83
2024-03-05T10:12:16.947Z,25.45
2024-03-05T10:22:53.467Z,25.20
2024-03-05T10:33:31.184Z,24.70
2024-03-05T10:44:08.428Z,24.45
2024-03-05T10:54:46.822Z,23.55
2024-03-05T11:05:22.194Z,24.97
2024-03-05T11:15:57.943Z,22.90
2024-03-05T11:26:35.141Z,23.70
2024-03-05T11:37:15.841Z,21.67
2024-03-05T11:47:51.423Z,23.55
2024-03-05T11:58:27.348Z,22.85
2024-03-05T12:09:22.612Z,21.20
2024-03-05T12:20:10.033Z,17.92
2024-03-05T12:30:45.464Z,14.23
2024-03-05T12:41:21.600Z,9.93
2024-03-05T12:52:03.121Z,9.43
2024-03-05T13:02:39.334Z,5.75
2024-03-05T13:13:14.352Z,5.45
2024-03-05T13:23:49.224Z,5.30
2024-03-05T13:34:24.361Z,5.03
2024-03-05T13:44:58.851Z,6.50
2024-03-05T13:55:34.149Z,6.05
2024-03-05T14:06:09.203Z,5.30
2024-03-05T14:16:45.885Z,5.07
2024-03-05T14:27:20.798Z,5.90
2024-03-05T14:37:59.530Z,5.47
2024-03-05T14:59:10.913Z,7.22
2024-03-05T15:09:46.769Z,8.70
2024-03-05T15:20:23.189Z,8.23
2024-03-05T15:30:58.116Z,7.40
2024-03-05T15:41:33.067Z,3.13
